sensor_id;sensor_type;location;lat;lon;timestamp;P1;durP1;ratioP1;P2;durP2;ratioP2
11211;SDS011;5663;50.864;12.096;2023-07-28T00:01:35;3.33;;;1.73;;
11211;SDS011;5663;50.864;12.096;2023-07-28T00:04:41;3.77;;;1.53;;
11211;SDS011;5663;50.864;12.096;2023-07-28T00:07:17;4.13;;;1.70;;
11211;SDS011;5663;50.864;12.096;2023-07-28T00:10:19;4.73;;;1.70;;
11211;SDS011;5663;50.864;12.096;2023-07-28T00:13:12;2.80;;;1.90;;
11211;SDS011;5663;50.864;12.096;2023-07-28T00:15:48;2.17;;;1.60;;
11211;SDS011;5663;50.864;12.096;2023-07-28T00:18:21;4.70;;;1.80;;
11211;SDS011;5663;50.864;12.096;2023-07-28T00:20:54;2.90;;;1.83;;
11211;SDS011;5663;50.864;12.096;2023-07-28T00:23:26;5.90;;;1.90;;
11211;SDS011;5663;50.864;12.096;2023-07-28T00:26:00;1.83;;;1.73;;
11211;SDS011;5663;50.864;12.096;2023-07-28T00:28:41;3.40;;;1.60;;
11211;SDS011;5663;50.864;12.096;2023-07-28T00:31:23;2.43;;;1.60;;
11211;SDS011;5663;50.864;12.096;2023-07-28T00:33:58;3.20;;;1.90;;
11211;SDS011;5663;50.864;12.096;2023-07-28T00:36:37;4.40;;;1.73;;
11211;SDS011;5663;50.864;12.096;2023-07-28T00:39:09;8.60;;;1.50;;
11211;SDS011;5663;50.864;12.096;2023-07-28T00:41:44;3.83;;;1.53;;
11211;SDS011;5663;50.864;12.096;2023-07-28T00:44:53;4.10;;;1.60;;
11211;SDS011;5663;50.864;12.096;2023-07-28T00:47:48;3.40;;;1.87;;
11211;SDS011;5663;50.864;12.096;2023-07-28T00:50:38;3.93;;;1.90;;
11211;SDS011;5663;50.864;12.096;2023-07-28T01:07:30;5.20;;;1.57;;
11211;SDS011;5663;50.864;12.096;2023-07-28T01:10:22;2.50;;;1.57;;
11211;SDS011;5663;50.864;12.096;2023-07-28T01:13:16;3.30;;;1.20;;
11211;SDS011;5663;50.864;12.096;2023-07-28T01:16:42;2.07;;;1.67;;
11211;SDS011;5663;50.864;12.096;2023-07-28T01:19:36;3.30;;;1.53;;
11211;SDS011;5663;50.864;12.096;2023-07-28T01:23:03;2.03;;;1.40;;
11211;SDS011;5663;50.864;12.096;2023-07-28T01:25:55;2.03;;;1.60;;
11211;SDS011;5663;50.864;12.096;2023-07-28T01:28:46;4.30;;;1.53;;
11211;SDS011;5663;50.864;12.096;2023-07-28T01:31:26;7.23;;;1.90;;
11211;SDS011;5663;50.864;12.096;2023-07-28T01:34:05;2.57;;;1.37;;
11211;SDS011;5663;50.864;12.096;2023-07-28T01:43:04;1.73;;;1.40;;
11211;SDS011;5663;50.864;12.096;2023-07-28T01:45:41;2.07;;;1.43;;
11211;SDS011;5663;50.864;12.096;2023-07-28T01:48:33;2.27;;;1.40;;
11211;SDS011;5663;50.864;12.096;2023-07-28T01:51:07;3.90;;;1.60;;
11211;SDS011;5663;50.864;12.096;2023-07-28T01:53:44;2.13;;;1.30;;
11211;SDS011;5663;50.864;12.096;2023-07-28T01:56:17;1.83;;;1.23;;
11211;SDS011;5663;50.864;12.096;2023-07-28T02:02:35;1.13;;;1.00;;
11211;SDS011;5663;50.864;12.096;2023-07-28T02:05:26;4.03;;;1.30;;
11211;SDS011;5663;50.864;12.096;2023-07-28T02:08:11;2.47;;;1.33;;
11211;SDS011;5663;50.864;12.096;2023-07-28T02:11:04;3.20;;;1.20;;
11211;SDS011;5663;50.864;12.096;2023-07-28T02:13:34;1.77;;;1.23;;
11211;SDS011;5663;50.864;12.096;2023-07-28T02:16:18;3.63;;;1.27;;
11211;SDS011;5663;50.864;12.096;2023-07-28T02:18:52;2.33;;;1.30;;
11211;SDS011;5663;50.864;12.096;2023-07-28T02:21:26;1.33;;;1.13;;
11211;SDS011;5663;50.864;12.096;2023-07-28T02:23:57;5.67;;;1.73;;
11211;SDS011;5663;50.864;12.096;2023-07-28T02:26:34;1.57;;;1.30;;
11211;SDS011;5663;50.864;12.096;2023-07-28T02:29:06;1.30;;;1.20;;
11211;SDS011;5663;50.864;12.096;2023-07-28T02:31:41;3.33;;;1.33;;
11211;SDS011;5663;50.864;12.096;2023-07-28T02:34:19;4.03;;;1.80;;
11211;SDS011;5663;50.864;12.096;2023-07-28T02:36:48;3.63;;;1.30;;
11211;SDS011;5663;50.864;12.096;2023-07-28T02:39:22;2.17;;;1.40;;
11211;SDS011;5663;50.864;12.096;2023-07-28T02:41:56;3.60;;;1.40;;
11211;SDS011;5663;50.864;12.096;2023-07-28T02:44:49;2.97;;;1.20;;
11211;SDS011;5663;50.864;12.096;2023-07-28T02:47:51;2.60;;;1.40;;
11211;SDS011;5663;50.864;12.096;2023-07-28T02:50:39;1.40;;;1.30;;
11211;SDS011;5663;50.864;12.096;2023-07-28T02:53:45;1.40;;;1.30;;
11211;SDS011;5663;50.864;12.096;2023-07-28T02:56:43;4.13;;;1.33;;
11211;SDS011;5663;50.864;12.096;2023-07-28T03:03:03;2.27;;;1.47;;
11211;SDS011;5663;50.864;12.096;2023-07-28T03:05:42;2.33;;;1.30;;
11211;SDS011;5663;50.864;12.096;2023-07-28T03:14:59;2.50;;;1.27;;
11211;SDS011;5663;50.864;12.096;2023-07-28T03:17:40;6.30;;;1.60;;
11211;SDS011;5663;50.864;12.096;2023-07-28T03:20:26;4.57;;;1.90;;
11211;SDS011;5663;50.864;12.096;2023-07-28T03:23:24;2.43;;;1.50;;
11211;SDS011;5663;50.864;12.096;2023-07-28T03:26:05;3.93;;;1.63;;
11211;SDS011;5663;50.864;12.096;2023-07-28T03:28:45;1.63;;;1.30;;
11211;SDS011;5663;50.864;12.096;2023-07-28T03:31:21;4.27;;;1.20;;
11211;SDS011;5663;50.864;12.096;2023-07-28T03:48:03;1.53;;;1.43;;
11211;SDS011;5663;50.864;12.096;2023-07-28T03:50:33;3.57;;;1.30;;
11211;SDS011;5663;50.864;12.096;2023-07-28T03:53:08;2.07;;;1.60;;
11211;SDS011;5663;50.864;12.096;2023-07-28T03:58:17;2.10;;;1.50;;
11211;SDS011;5663;50.864;12.096;2023-07-28T04:00:53;3.07;;;1.30;;
11211;SDS011;5663;50.864;12.096;2023-07-28T04:03:27;2.50;;;1.50;;
11211;SDS011;5663;50.864;12.096;2023-07-28T04:06:05;2.47;;;1.37;;
11211;SDS011;5663;50.864;12.096;2023-07-28T04:08:43;3.47;;;1.60;;
11211;SDS011;5663;50.864;12.096;2023-07-28T04:11:24;3.93;;;1.20;;
11211;SDS011;5663;50.864;12.096;2023-07-28T04:14:23;2.30;;;1.40;;
11211;SDS011;5663;50.864;12.096;2023-07-28T04:17:03;3.80;;;1.80;;
11211;SDS011;5663;50.864;12.096;2023-07-28T04:19:42;2.57;;;1.40;;
11211;SDS011;5663;50.864;12.096;2023-07-28T04:22:30;3.93;;;1.57;;
11211;SDS011;5663;50.864;12.096;2023-07-28T04:25:04;1.63;;;1.50;;
11211;SDS011;5663;50.864;12.096;2023-07-28T04:49:48;2.83;;;1.30;;
11211;SDS011;5663;50.864;12.096;2023-07-28T04:52:35;1.83;;;1.10;;
11211;SDS011;5663;50.864;12.096;2023-07-28T04:55:34;3.10;;;1.20;;
11211;SDS011;5663;50.864;12.096;2023-07-28T04:58:13;2.10;;;1.43;;
11211;SDS011;5663;50.864;12.096;2023-07-28T05:01:08;3.43;;;1.37;;
11211;SDS011;5663;50.864;12.096;2023-07-28T05:04:01;2.23;;;1.10;;
11211;SDS011;5663;50.864;12.096;2023-07-28T05:16:11;3.17;;;1.40;;
11211;SDS011;5663;50.864;12.096;2023-07-28T05:19:06;1.50;;;1.23;;
11211;SDS011;5663;50.864;12.096;2023-07-28T05:21:55;2.73;;;1.50;;
11211;SDS011;5663;50.864;12.096;2023-07-28T06:28:40;1.67;;;1.40;;
11211;SDS011;5663;50.864;12.096;2023-07-28T06:31:17;1.73;;;1.30;;
11211;SDS011;5663;50.864;12.096;2023-07-28T06:46:59;1.20;;;1.10;;
11211;SDS011;5663;50.864;12.096;2023-07-28T09:18:26;0.90;;;0.90;;
11211;SDS011;5663;50.864;12.096;2023-07-28T09:21:30;0.80;;;0.80;;
11211;SDS011;5663;50.864;12.096;2023-07-28T09:24:22;2.08;;;0.90;;
11211;SDS011;5663;50.864;12.096;2023-07-28T09:27:23;1.30;;;1.20;;
11211;SDS011;5663;50.864;12.096;2023-07-28T09:30:21;1.02;;;0.93;;
11211;SDS011;5663;50.864;12.096;2023-07-28T10:07:18;0.80;;;0.80;;
11211;SDS011;5663;50.864;12.096;2023-07-28T10:10:27;1.33;;;1.10;;
11211;SDS011;5663;50.864;12.096;2023-07-28T10:13:23;1.02;;;0.90;;
11211;SDS011;5663;50.864;12.096;2023-07-28T10:16:13;1.58;;;0.98;;
11211;SDS011;5663;50.864;12.096;2023-07-28T10:19:35;4.13;;;1.25;;
11211;SDS011;5663;50.864;12.096;2023-07-28T16:26:36;3.03;;;0.90;;
11211;SDS011;5663;50.864;12.096;2023-07-28T16:29:25;0.80;;;0.77;;
11211;SDS011;5663;50.864;12.096;2023-07-28T16:32:01;0.77;;;0.77;;
11211;SDS011;5663;50.864;12.096;2023-07-28T16:52:39;3.58;;;1.30;;
11211;SDS011;5663;50.864;12.096;2023-07-28T16:58:56;1.45;;;1.00;;
11211;SDS011;5663;50.864;12.096;2023-07-28T17:15:10;1.17;;;1.05;;
11211;SDS011;5663;50.864;12.096;2023-07-28T17:18:29;1.17;;;1.05;;
11211;SDS011;5663;50.864;12.096;2023-07-28T21:48:12;2.10;;;1.90;;
